CheckWX is a tool to help pilots better visualize weather data.  It is not intended as a substitute for an official pre-flight weather briefing.

21:18:42 UTC

KATW TAF
Appleton International Airport
Appleton, Wisconsin, USA
KATW 171720Z 1718/1818 18009KT P6SM SCT250 FM180400 17005KT P6SM SCT250 FM181600 18011G18KT P6SM SCT250

Sep-17@
18:00 UTC

Sep-17 @ 18:00 UTC

Sep-18@
04:00 UTC

Sep-18 @ 04:00 UTC

KATW 171720Z 1718/1818 18009KT P6SM SCT250
Wind
  • 180° at 9 KTS
Cloud Levels
  • Scattered at 25,000' AGL

Sep-18@
04:00 UTC

Sep-18 @ 04:00 UTC

Sep-18@
16:00 UTC

Sep-18 @ 16:00 UTC

FM180400 17005KT P6SM SCT250

From

From Standard forecast or significant change

Wind
  • 170° at 5 KTS
Cloud Levels
  • Scattered at 25,000' AGL

Sep-18@
16:00 UTC

Sep-18 @ 16:00 UTC

Sep-18@
18:00 UTC

Sep-18 @ 18:00 UTC

FM181600 18011G18KT P6SM SCT250

From

From Standard forecast or significant change

Wind
  • 180° at 11 KTS
  • {Gusting to 18 KTS
Cloud Levels
  • Scattered at 25,000' AGL